sensor_id;sensor_type;location;lat;lon;timestamp;pressure;altitude;pressure_sealevel;temperature;humidity
31346;BME280;21711;49.708;18.568;2023-03-18T00:02:00;97464.38;;;4.22;51.03
31346;BME280;21711;49.708;18.568;2023-03-18T00:04:29;97459.63;;;4.19;51.17
31346;BME280;21711;49.708;18.568;2023-03-18T00:06:56;97458.38;;;4.45;48.15
31346;BME280;21711;49.708;18.568;2023-03-18T00:09:25;97460.19;;;4.57;51.37
31346;BME280;21711;49.708;18.568;2023-03-18T00:11:52;97447.78;;;4.40;49.39
31346;BME280;21711;49.708;18.568;2023-03-18T00:14:19;97453.91;;;4.34;50.10
31346;BME280;21711;49.708;18.568;2023-03-18T00:16:47;97452.00;;;4.29;52.72
31346;BME280;21711;49.708;18.568;2023-03-18T00:19:14;97447.91;;;4.33;50.36
31346;BME280;21711;49.708;18.568;2023-03-18T00:21:41;97453.22;;;4.15;51.38
31346;BME280;21711;49.708;18.568;2023-03-18T00:24:09;97451.75;;;4.19;49.50
31346;BME280;21711;49.708;18.568;2023-03-18T00:26:37;97453.44;;;4.13;53.73
31346;BME280;21711;49.708;18.568;2023-03-18T00:29:05;97448.59;;;3.74;53.21
31346;BME280;21711;49.708;18.568;2023-03-18T00:31:32;97441.63;;;3.68;56.43
31346;BME280;21711;49.708;18.568;2023-03-18T00:33:59;97442.00;;;3.84;52.61
31346;BME280;21711;49.708;18.568;2023-03-18T00:36:26;97448.53;;;4.05;52.90
31346;BME280;21711;49.708;18.568;2023-03-18T00:38:54;97446.03;;;3.98;53.35
31346;BME280;21711;49.708;18.568;2023-03-18T00:41:29;97441.78;;;3.85;55.21
31346;BME280;21711;49.708;18.568;2023-03-18T00:43:56;97439.41;;;3.53;53.82
31346;BME280;21711;49.708;18.568;2023-03-18T00:49:06;97436.59;;;3.54;54.34
31346;BME280;21711;49.708;18.568;2023-03-18T00:51:34;97439.41;;;3.53;52.96
31346;BME280;21711;49.708;18.568;2023-03-18T00:54:05;97441.00;;;3.54;53.93
31346;BME280;21711;49.708;18.568;2023-03-18T00:56:34;97437.41;;;3.55;56.33
31346;BME280;21711;49.708;18.568;2023-03-18T00:59:03;97434.22;;;3.34;58.07
31346;BME280;21711;49.708;18.568;2023-03-18T01:01:32;97428.47;;;3.13;56.39
31346;BME280;21711;49.708;18.568;2023-03-18T01:04:00;97424.91;;;3.08;54.38
31346;BME280;21711;49.708;18.568;2023-03-18T01:06:29;97422.44;;;3.44;54.23
31346;BME280;21711;49.708;18.568;2023-03-18T01:08:57;97425.66;;;3.46;54.73
31346;BME280;21711;49.708;18.568;2023-03-18T01:11:25;97415.97;;;3.46;56.34
31346;BME280;21711;49.708;18.568;2023-03-18T01:13:52;97415.16;;;3.34;56.29
31346;BME280;21711;49.708;18.568;2023-03-18T01:16:20;97416.94;;;3.02;55.97
31346;BME280;21711;49.708;18.568;2023-03-18T01:18:48;97410.19;;;3.44;52.81
31346;BME280;21711;49.708;18.568;2023-03-18T01:21:15;97403.91;;;3.76;52.65
31346;BME280;21711;49.708;18.568;2023-03-18T01:23:51;97406.47;;;3.64;55.48
31346;BME280;21711;49.708;18.568;2023-03-18T01:26:19;97394.44;;;3.32;58.02
31346;BME280;21711;49.708;18.568;2023-03-18T01:28:46;97400.41;;;3.21;56.97
31346;BME280;21711;49.708;18.568;2023-03-18T01:31:13;97399.88;;;3.00;56.70
31346;BME280;21711;49.708;18.568;2023-03-18T01:33:43;97392.19;;;3.05;55.82
31346;BME280;21711;49.708;18.568;2023-03-18T01:36:10;97391.59;;;3.03;56.06
31346;BME280;21711;49.708;18.568;2023-03-18T01:38:38;97389.69;;;3.10;54.91
31346;BME280;21711;49.708;18.568;2023-03-18T01:41:10;97383.16;;;3.20;54.29
31346;BME280;21711;49.708;18.568;2023-03-18T01:43:40;97389.59;;;3.48;53.24
31346;BME280;21711;49.708;18.568;2023-03-18T01:48:55;97389.00;;;3.76;52.98
31346;BME280;21711;49.708;18.568;2023-03-18T01:51:22;97390.56;;;3.65;53.11
31346;BME280;21711;49.708;18.568;2023-03-18T01:53:52;97389.19;;;3.63;52.71
31346;BME280;21711;49.708;18.568;2023-03-18T01:56:20;97391.97;;;3.80;52.33
31346;BME280;21711;49.708;18.568;2023-03-18T01:58:53;97377.19;;;3.86;51.36
31346;BME280;21711;49.708;18.568;2023-03-18T02:01:25;97387.28;;;3.82;51.90
31346;BME280;21711;49.708;18.568;2023-03-18T02:03:56;97379.00;;;3.85;51.16
31346;BME280;21711;49.708;18.568;2023-03-18T02:06:23;97381.72;;;3.90;51.27
31346;BME280;21711;49.708;18.568;2023-03-18T02:08:58;97385.94;;;3.91;51.79
31346;BME280;21711;49.708;18.568;2023-03-18T02:11:30;97385.72;;;3.93;51.29
31346;BME280;21711;49.708;18.568;2023-03-18T02:14:00;97378.56;;;3.88;54.44
31346;BME280;21711;49.708;18.568;2023-03-18T02:16:37;97383.66;;;3.71;55.29
31346;BME280;21711;49.708;18.568;2023-03-18T02:22:28;97371.78;;;3.45;54.21
31346;BME280;21711;49.708;18.568;2023-03-18T02:27:53;97372.75;;;3.44;55.81
31346;BME280;21711;49.708;18.568;2023-03-18T02:30:27;97369.25;;;3.38;54.82
31346;BME280;21711;49.708;18.568;2023-03-18T02:32:59;97366.94;;;3.29;55.91
31346;BME280;21711;49.708;18.568;2023-03-18T02:35:27;97376.13;;;3.20;55.21
31346;BME280;21711;49.708;18.568;2023-03-18T02:37:58;97372.59;;;3.26;56.01
31346;BME280;21711;49.708;18.568;2023-03-18T02:40:31;97375.00;;;3.28;55.93
31346;BME280;21711;49.708;18.568;2023-03-18T02:46:22;97375.03;;;3.09;55.71
31346;BME280;21711;49.708;18.568;2023-03-18T02:48:53;97370.38;;;3.42;53.91
31346;BME280;21711;49.708;18.568;2023-03-18T02:51:21;97372.56;;;3.57;54.02
31346;BME280;21711;49.708;18.568;2023-03-18T02:53:49;97372.25;;;3.53;53.07
31346;BME280;21711;49.708;18.568;2023-03-18T02:56:17;97382.56;;;3.48;53.81
31346;BME280;21711;49.708;18.568;2023-03-18T02:58:44;97374.59;;;3.43;54.00
31346;BME280;21711;49.708;18.568;2023-03-18T03:01:13;97378.34;;;3.35;55.43
31346;BME280;21711;49.708;18.568;2023-03-18T03:03:40;97374.66;;;3.24;58.50
31346;BME280;21711;49.708;18.568;2023-03-18T03:06:09;97377.22;;;3.12;57.07
31346;BME280;21711;49.708;18.568;2023-03-18T03:08:37;97378.09;;;3.06;57.26
31346;BME280;21711;49.708;18.568;2023-03-18T03:11:05;97379.28;;;2.92;57.76
31346;BME280;21711;49.708;18.568;2023-03-18T03:13:36;97386.19;;;2.67;57.84
31346;BME280;21711;49.708;18.568;2023-03-18T03:16:04;97385.59;;;2.65;57.75
31346;BME280;21711;49.708;18.568;2023-03-18T03:18:31;97386.13;;;2.55;59.54
31346;BME280;21711;49.708;18.568;2023-03-18T03:20:58;97382.50;;;2.75;58.70
31346;BME280;21711;49.708;18.568;2023-03-18T03:23:26;97392.06;;;2.62;57.63
31346;BME280;21711;49.708;18.568;2023-03-18T03:25:53;97388.06;;;2.60;57.55
31346;BME280;21711;49.708;18.568;2023-03-18T03:28:20;97386.41;;;2.66;57.24
31346;BME280;21711;49.708;18.568;2023-03-18T03:30:48;97392.94;;;2.75;56.78
31346;BME280;21711;49.708;18.568;2023-03-18T03:33:16;97401.53;;;2.94;57.22
31346;BME280;21711;49.708;18.568;2023-03-18T03:35:43;97390.59;;;2.67;59.53
31346;BME280;21711;49.708;18.568;2023-03-18T03:38:10;97390.97;;;2.70;59.25
31346;BME280;21711;49.708;18.568;2023-03-18T03:40:38;97382.41;;;2.63;58.74
31346;BME280;21711;49.708;18.568;2023-03-18T03:43:05;97387.94;;;2.55;58.03
31346;BME280;21711;49.708;18.568;2023-03-18T03:45:32;97388.34;;;2.70;57.62
31346;BME280;21711;49.708;18.568;2023-03-18T03:48:00;97381.31;;;2.71;58.02
31346;BME280;21711;49.708;18.568;2023-03-18T03:50:28;97389.03;;;2.66;58.40
31346;BME280;21711;49.708;18.568;2023-03-18T03:52:55;97386.06;;;2.81;57.93
31346;BME280;21711;49.708;18.568;2023-03-18T03:55:24;97391.16;;;2.87;59.19
31346;BME280;21711;49.708;18.568;2023-03-18T03:57:53;97375.75;;;2.67;58.69
31346;BME280;21711;49.708;18.568;2023-03-18T04:00:21;97380.75;;;2.50;61.26
31346;BME280;21711;49.708;18.568;2023-03-18T04:02:50;97383.78;;;2.47;60.09
31346;BME280;21711;49.708;18.568;2023-03-18T04:05:21;97384.34;;;2.49;58.63
31346;BME280;21711;49.708;18.568;2023-03-18T04:07:49;97380.88;;;2.36;61.95
31346;BME280;21711;49.708;18.568;2023-03-18T04:10:20;97390.31;;;2.38;58.44
31346;BME280;21711;49.708;18.568;2023-03-18T04:12:48;97379.94;;;2.31;59.67
31346;BME280;21711;49.708;18.568;2023-03-18T04:15:17;97380.34;;;2.28;58.49
31346;BME280;21711;49.708;18.568;2023-03-18T04:17:48;97384.81;;;2.46;58.55
31346;BME280;21711;49.708;18.568;2023-03-18T04:20:17;97381.16;;;2.28;59.81
31346;BME280;21711;49.708;18.568;2023-03-18T04:22:45;97381.59;;;2.25;58.79
31346;BME280;21711;49.708;18.568;2023-03-18T04:25:14;97381.53;;;2.32;58.23
31346;BME280;21711;49.708;18.568;2023-03-18T04:27:41;97379.44;;;2.41;60.27
31346;BME280;21711;49.708;18.568;2023-03-18T04:30:11;97381.25;;;2.59;58.25
31346;BME280;21711;49.708;18.568;2023-03-18T04:32:53;97383.06;;;2.58;58.27
31346;BME280;21711;49.708;18.568;2023-03-18T04:35:21;97373.22;;;2.79;58.47
31346;BME280;21711;49.708;18.568;2023-03-18T04:37:50;97383.28;;;2.75;55.93
31346;BME280;21711;49.708;18.568;2023-03-18T04:40:18;97372.81;;;2.94;56.78
31346;BME280;21711;49.708;18.568;2023-03-18T04:42:46;97378.69;;;2.89;58.15
31346;BME280;21711;49.708;18.568;2023-03-18T04:45:15;97374.34;;;3.02;55.75
31346;BME280;21711;49.708;18.568;2023-03-18T04:47:43;97378.28;;;2.93;56.02
31346;BME280;21711;49.708;18.568;2023-03-18T04:50:12;97377.47;;;2.92;55.48
31346;BME280;21711;49.708;18.568;2023-03-18T04:52:41;97380.34;;;3.02;57.04
31346;BME280;21711;49.708;18.568;2023-03-18T04:55:12;97381.53;;;2.88;58.98
31346;BME280;21711;49.708;18.568;2023-03-18T04:57:44;97383.94;;;2.89;60.73
31346;BME280;21711;49.708;18.568;2023-03-18T05:00:16;97378.97;;;3.00;58.98
31346;BME280;21711;49.708;18.568;2023-03-18T05:02:47;97387.91;;;2.92;58.38
31346;BME280;21711;49.708;18.568;2023-03-18T05:05:14;97382.41;;;3.00;58.88
31346;BME280;21711;49.708;18.568;2023-03-18T05:07:46;97373.88;;;3.05;57.35
31346;BME280;21711;49.708;18.568;2023-03-18T05:10:16;97389.28;;;3.13;59.06
31346;BME280;21711;49.708;18.568;2023-03-18T05:12:45;97388.91;;;3.10;57.88
31346;BME280;21711;49.708;18.568;2023-03-18T05:15:14;97390.50;;;3.11;60.25
31346;BME280;21711;49.708;18.568;2023-03-18T05:17:47;97385.25;;;3.29;61.26
31346;BME280;21711;49.708;18.568;2023-03-18T05:20:14;97391.03;;;3.32;62.10
31346;BME280;21711;49.708;18.568;2023-03-18T05:22:44;97399.97;;;3.24;58.50
31346;BME280;21711;49.708;18.568;2023-03-18T05:25:17;97408.50;;;3.19;58.88
31346;BME280;21711;49.708;18.568;2023-03-18T05:27:44;97403.88;;;3.33;62.18
31346;BME280;21711;49.708;18.568;2023-03-18T05:30:30;97404.19;;;3.55;57.31
31346;BME280;21711;49.708;18.568;2023-03-18T05:32:58;97416.44;;;3.86;57.75
31346;BME280;21711;49.708;18.568;2023-03-18T05:35:46;97418.28;;;4.21;58.78
31346;BME280;21711;49.708;18.568;2023-03-18T05:38:15;97410.75;;;4.37;56.21
31346;BME280;21711;49.708;18.568;2023-03-18T05:40:42;97420.66;;;4.58;53.91
31346;BME280;21711;49.708;18.568;2023-03-18T05:43:16;97420.31;;;4.79;57.29
31346;BME280;21711;49.708;18.568;2023-03-18T05:45:51;97426.38;;;5.08;56.91
31346;BME280;21711;49.708;18.568;2023-03-18T05:48:23;97436.81;;;5.20;51.62
31346;BME280;21711;49.708;18.568;2023-03-18T05:50:55;97432.13;;;5.34;52.68
31346;BME280;21711;49.708;18.568;2023-03-18T05:53:26;97439.84;;;5.70;50.42
31346;BME280;21711;49.708;18.568;2023-03-18T05:56:04;97444.91;;;6.23;52.13
31346;BME280;21711;49.708;18.568;2023-03-18T05:58:31;97445.34;;;6.94;52.53
31346;BME280;21711;49.708;18.568;2023-03-18T06:01:14;97449.38;;;8.07;50.14
31346;BME280;21711;49.708;18.568;2023-03-18T06:03:42;97456.00;;;8.95;48.00
31346;BME280;21711;49.708;18.568;2023-03-18T06:06:09;97442.50;;;9.71;46.66
31346;BME280;21711;49.708;18.568;2023-03-18T06:08:38;97445.69;;;10.36;41.12
31346;BME280;21711;49.708;18.568;2023-03-18T06:11:07;97464.41;;;10.86;39.19
31346;BME280;21711;49.708;18.568;2023-03-18T06:13:34;97454.22;;;11.20;37.81
31346;BME280;21711;49.708;18.568;2023-03-18T06:16:01;97462.03;;;11.91;37.37
31346;BME280;21711;49.708;18.568;2023-03-18T06:18:29;97462.31;;;12.29;35.16
31346;BME280;21711;49.708;18.568;2023-03-18T06:20:59;97462.25;;;12.88;33.03
31346;BME280;21711;49.708;18.568;2023-03-18T06:23:26;97465.47;;;13.10;34.05
31346;BME280;21711;49.708;18.568;2023-03-18T06:25:54;97464.91;;;12.64;33.30
31346;BME280;21711;49.708;18.568;2023-03-18T06:28:27;97460.69;;;12.28;32.70
31346;BME280;21711;49.708;18.568;2023-03-18T06:30:58;97467.19;;;12.46;34.12
31346;BME280;21711;49.708;18.568;2023-03-18T06:33:26;97468.75;;;12.77;34.64
31346;BME280;21711;49.708;18.568;2023-03-18T06:35:54;97473.69;;;13.08;32.62
31346;BME280;21711;49.708;18.568;2023-03-18T06:38:22;97473.34;;;12.96;34.47
31346;BME280;21711;49.708;18.568;2023-03-18T06:40:50;97474.50;;;12.84;33.02
31346;BME280;21711;49.708;18.568;2023-03-18T06:43:17;97474.22;;;12.86;32.57
31346;BME280;21711;49.708;18.568;2023-03-18T06:45:44;97485.88;;;13.34;32.66
31346;BME280;21711;49.708;18.568;2023-03-18T06:48:12;97488.44;;;14.02;31.87
31346;BME280;21711;49.708;18.568;2023-03-18T06:50:42;97485.56;;;14.65;31.02
31346;BME280;21711;49.708;18.568;2023-03-18T06:53:17;97483.56;;;14.09;31.37
31346;BME280;21711;49.708;18.568;2023-03-18T06:55:46;97488.09;;;14.09;32.27
31346;BME280;21711;49.708;18.568;2023-03-18T06:58:16;97488.09;;;14.42;29.77
31346;BME280;21711;49.708;18.568;2023-03-18T07:00:57;97491.94;;;14.50;28.73
31346;BME280;21711;49.708;18.568;2023-03-18T07:03:29;97491.53;;;14.42;30.06
31346;BME280;21711;49.708;18.568;2023-03-18T07:05:56;97497.22;;;14.69;30.11
31346;BME280;21711;49.708;18.568;2023-03-18T07:08:24;97501.47;;;15.40;29.85
31346;BME280;21711;49.708;18.568;2023-03-18T07:10:52;97502.94;;;15.46;28.30
31346;BME280;21711;49.708;18.568;2023-03-18T07:13:24;97506.47;;;15.70;28.85
31346;BME280;21711;49.708;18.568;2023-03-18T07:15:51;97512.06;;;16.19;28.06
31346;BME280;21711;49.708;18.568;2023-03-18T07:18:23;97517.09;;;15.98;27.86
31346;BME280;21711;49.708;18.568;2023-03-18T07:20:50;97505.19;;;15.67;27.93
31346;BME280;21711;49.708;18.568;2023-03-18T07:23:20;97505.94;;;15.31;29.05
31346;BME280;21711;49.708;18.568;2023-03-18T07:25:48;97498.25;;;15.15;29.25
31346;BME280;21711;49.708;18.568;2023-03-18T07:28:18;97495.47;;;14.92;30.16
31346;BME280;21711;49.708;18.568;2023-03-18T07:30:46;97499.31;;;15.42;29.52
31346;BME280;21711;49.708;18.568;2023-03-18T07:33:13;97499.41;;;15.51;27.74
31346;BME280;21711;49.708;18.568;2023-03-18T07:35:41;97509.09;;;15.84;27.02
31346;BME280;21711;49.708;18.568;2023-03-18T07:38:09;97511.63;;;15.89;27.81
31346;BME280;21711;49.708;18.568;2023-03-18T07:40:37;97504.06;;;16.19;26.67
31346;BME280;21711;49.708;18.568;2023-03-18T07:43:05;97503.25;;;16.41;26.13
31346;BME280;21711;49.708;18.568;2023-03-18T07:45:32;97508.28;;;16.75;27.21
31346;BME280;21711;49.708;18.568;2023-03-18T07:48:00;97504.59;;;17.25;25.17
31346;BME280;21711;49.708;18.568;2023-03-18T07:50:27;97503.56;;;17.61;26.92
31346;BME280;21711;49.708;18.568;2023-03-18T07:52:54;97506.72;;;18.17;24.69
31346;BME280;21711;49.708;18.568;2023-03-18T07:55:21;97506.91;;;18.77;23.02
31346;BME280;21711;49.708;18.568;2023-03-18T07:57:49;97507.66;;;19.77;22.89
31346;BME280;21711;49.708;18.568;2023-03-18T08:00:17;97508.13;;;20.00;23.33
31346;BME280;21711;49.708;18.568;2023-03-18T08:02:44;97521.50;;;21.14;21.49
31346;BME280;21711;49.708;18.568;2023-03-18T08:05:11;97519.19;;;20.66;22.22
31346;BME280;21711;49.708;18.568;2023-03-18T08:07:39;97515.81;;;21.15;21.30
31346;BME280;21711;49.708;18.568;2023-03-18T08:10:07;97518.78;;;21.76;20.51
31346;BME280;21711;49.708;18.568;2023-03-18T08:12:35;97517.72;;;21.93;19.80
31346;BME280;21711;49.708;18.568;2023-03-18T08:15:18;97523.97;;;22.26;19.22
31346;BME280;21711;49.708;18.568;2023-03-18T08:17:45;97513.38;;;23.10;18.11
31346;BME280;21711;49.708;18.568;2023-03-18T08:20:13;97522.88;;;23.04;17.96
31346;BME280;21711;49.708;18.568;2023-03-18T08:22:41;97518.44;;;22.80;18.01
31346;BME280;21711;49.708;18.568;2023-03-18T08:25:08;97513.88;;;23.32;18.64
31346;BME280;21711;49.708;18.568;2023-03-18T08:27:35;97512.34;;;24.07;16.71
31346;BME280;21711;49.708;18.568;2023-03-18T08:30:03;97515.22;;;24.57;16.51
31346;BME280;21711;49.708;18.568;2023-03-18T08:32:30;97522.75;;;25.18;16.52
31346;BME280;21711;49.708;18.568;2023-03-18T08:34:58;97514.53;;;24.40;17.60
31346;BME280;21711;49.708;18.568;2023-03-18T08:37:27;97520.16;;;24.32;16.82
31346;BME280;21711;49.708;18.568;2023-03-18T08:39:54;97516.34;;;25.30;16.20
31346;BME280;21711;49.708;18.568;2023-03-18T08:42:21;97517.84;;;26.16;16.83
31346;BME280;21711;49.708;18.568;2023-03-18T08:44:48;97512.56;;;25.34;16.47
31346;BME280;21711;49.708;18.568;2023-03-18T08:47:16;97519.06;;;25.30;15.36
31346;BME280;21711;49.708;18.568;2023-03-18T08:49:44;97518.56;;;27.41;13.89
31346;BME280;21711;49.708;18.568;2023-03-18T08:52:11;97513.78;;;27.94;13.70
31346;BME280;21711;49.708;18.568;2023-03-18T08:54:38;97514.88;;;27.11;15.03
31346;BME280;21711;49.708;18.568;2023-03-18T08:57:06;97510.88;;;27.54;13.04
31346;BME280;21711;49.708;18.568;2023-03-18T08:59:33;97511.22;;;28.48;12.38
31346;BME280;21711;49.708;18.568;2023-03-18T09:02:00;97505.00;;;28.88;13.70
31346;BME280;21711;49.708;18.568;2023-03-18T09:04:27;97502.66;;;27.43;13.02
31346;BME280;21711;49.708;18.568;2023-03-18T09:06:55;97503.13;;;28.88;12.68
31346;BME280;21711;49.708;18.568;2023-03-18T09:09:22;97505.41;;;28.83;12.08
31346;BME280;21711;49.708;18.568;2023-03-18T09:12:03;97503.81;;;29.29;11.67
31346;BME280;21711;49.708;18.568;2023-03-18T09:14:31;97496.06;;;29.13;11.51
31346;BME280;21711;49.708;18.568;2023-03-18T09:16:59;97495.31;;;28.83;12.53
31346;BME280;21711;49.708;18.568;2023-03-18T09:19:27;97492.22;;;28.74;12.19
31346;BME280;21711;49.708;18.568;2023-03-18T09:21:54;97496.47;;;29.08;11.94
31346;BME280;21711;49.708;18.568;2023-03-18T09:24:22;97490.13;;;29.69;11.52
31346;BME280;21711;49.708;18.568;2023-03-18T09:26:49;97492.56;;;29.23;12.75
31346;BME280;21711;49.708;18.568;2023-03-18T09:29:16;97489.09;;;29.08;11.29
31346;BME280;21711;49.708;18.568;2023-03-18T09:31:43;97487.44;;;29.58;10.80
31346;BME280;21711;49.708;18.568;2023-03-18T09:34:11;97483.56;;;29.59;11.58
31346;BME280;21711;49.708;18.568;2023-03-18T09:36:39;97485.22;;;30.21;12.32
31346;BME280;21711;49.708;18.568;2023-03-18T09:39:07;97488.59;;;29.64;11.90
31346;BME280;21711;49.708;18.568;2023-03-18T09:44:25;97482.63;;;30.59;12.25
31346;BME280;21711;49.708;18.568;2023-03-18T09:52:30;97487.19;;;32.71;9.22
31346;BME280;21711;49.708;18.568;2023-03-18T09:55:20;97488.63;;;32.79;8.61
31346;BME280;21711;49.708;18.568;2023-03-18T09:57:50;97470.94;;;30.58;9.57
31346;BME280;21711;49.708;18.568;2023-03-18T10:00:35;97468.41;;;30.82;10.20
31346;BME280;21711;49.708;18.568;2023-03-18T10:03:14;97474.31;;;30.17;10.91
31346;BME280;21711;49.708;18.568;2023-03-18T10:05:55;97459.94;;;28.72;12.40
31346;BME280;21711;49.708;18.568;2023-03-18T10:11:04;97477.19;;;33.09;10.65
31346;BME280;21711;49.708;18.568;2023-03-18T10:13:34;97469.69;;;31.82;10.27
31346;BME280;21711;49.708;18.568;2023-03-18T10:16:03;97462.84;;;32.01;10.28
31346;BME280;21711;49.708;18.568;2023-03-18T10:18:33;97464.06;;;31.97;10.65
31346;BME280;21711;49.708;18.568;2023-03-18T10:26:48;97458.81;;;30.63;11.26
31346;BME280;21711;49.708;18.568;2023-03-18T10:29:40;97463.47;;;31.12;9.51
31346;BME280;21711;49.708;18.568;2023-03-18T10:37:56;97450.25;;;28.46;11.72
31346;BME280;21711;49.708;18.568;2023-03-18T10:40:24;97452.81;;;26.53;12.95
31346;BME280;21711;49.708;18.568;2023-03-18T10:42:51;97450.50;;;25.76;13.76
31346;BME280;21711;49.708;18.568;2023-03-18T10:45:26;97449.91;;;26.32;13.61
31346;BME280;21711;49.708;18.568;2023-03-18T10:48:24;97451.34;;;28.19;11.74
31346;BME280;21711;49.708;18.568;2023-03-18T10:54:14;97461.47;;;29.17;12.80
31346;BME280;21711;49.708;18.568;2023-03-18T10:56:45;97467.31;;;29.08;11.91
31346;BME280;21711;49.708;18.568;2023-03-18T10:59:14;97459.88;;;29.38;12.76
31346;BME280;21711;49.708;18.568;2023-03-18T11:01:47;97455.38;;;29.88;11.56
31346;BME280;21711;49.708;18.568;2023-03-18T11:04:17;97446.72;;;28.85;11.17
31346;BME280;21711;49.708;18.568;2023-03-18T11:06:56;97449.06;;;28.80;11.26
31346;BME280;21711;49.708;18.568;2023-03-18T11:09:30;97446.34;;;28.69;11.25
31346;BME280;21711;49.708;18.568;2023-03-18T11:12:03;97449.69;;;29.60;11.90
31346;BME280;21711;49.708;18.568;2023-03-18T11:14:32;97443.63;;;28.61;11.71
31346;BME280;21711;49.708;18.568;2023-03-18T11:17:03;97438.88;;;28.04;11.78
31346;BME280;21711;49.708;18.568;2023-03-18T11:19:39;97443.75;;;27.51;12.86
31346;BME280;21711;49.708;18.568;2023-03-18T11:22:21;97432.59;;;27.70;12.69
31346;BME280;21711;49.708;18.568;2023-03-18T11:25:19;97424.53;;;27.03;13.94
31346;BME280;21711;49.708;18.568;2023-03-18T11:28:36;97432.25;;;27.79;11.73
31346;BME280;21711;49.708;18.568;2023-03-18T11:30:47;97427.78;;;27.35;12.98
31346;BME280;21711;49.708;18.568;2023-03-18T11:33:15;97424.91;;;28.02;11.59
31346;BME280;21711;49.708;18.568;2023-03-18T11:35:53;97433.50;;;28.22;13.05
31346;BME280;21711;49.708;18.568;2023-03-18T11:41:13;97422.59;;;27.96;12.88
31346;BME280;21711;49.708;18.568;2023-03-18T11:44:13;97428.41;;;28.06;11.90
31346;BME280;21711;49.708;18.568;2023-03-18T11:46:50;97418.50;;;25.55;12.78
31346;BME280;21711;49.708;18.568;2023-03-18T11:49:22;97409.59;;;25.89;12.32
31346;BME280;21711;49.708;18.568;2023-03-18T11:57:26;97416.03;;;28.19;11.46
31346;BME280;21711;49.708;18.568;2023-03-18T12:05:29;97400.38;;;25.59;13.12
31346;BME280;21711;49.708;18.568;2023-03-18T12:11:00;97400.25;;;25.82;13.10
31346;BME280;21711;49.708;18.568;2023-03-18T12:14:26;97400.06;;;25.33;12.60
31346;BME280;21711;49.708;18.568;2023-03-18T12:17:01;97393.09;;;25.63;13.69
31346;BME280;21711;49.708;18.568;2023-03-18T12:25:40;97390.69;;;24.97;12.99
31346;BME280;21711;49.708;18.568;2023-03-18T12:33:42;97388.19;;;22.59;16.77
31346;BME280;21711;49.708;18.568;2023-03-18T12:36:19;97384.59;;;23.23;15.89
31346;BME280;21711;49.708;18.568;2023-03-18T12:47:15;97381.63;;;22.93;16.35
31346;BME280;21711;49.708;18.568;2023-03-18T12:49:48;97379.41;;;22.30;16.83
31346;BME280;21711;49.708;18.568;2023-03-18T12:52:30;97385.16;;;22.29;16.24
31346;BME280;21711;49.708;18.568;2023-03-18T12:55:28;97383.69;;;22.31;16.62
31346;BME280;21711;49.708;18.568;2023-03-18T13:00:45;97374.81;;;21.41;17.77
31346;BME280;21711;49.708;18.568;2023-03-18T13:03:32;97368.66;;;20.87;17.89
31346;BME280;21711;49.708;18.568;2023-03-18T13:14:13;97370.91;;;19.13;18.78
31346;BME280;21711;49.708;18.568;2023-03-18T13:16:43;97369.63;;;18.59;18.42
31346;BME280;21711;49.708;18.568;2023-03-18T13:19:12;97357.66;;;18.56;18.60
31346;BME280;21711;49.708;18.568;2023-03-18T13:21:44;97359.34;;;18.91;19.58
31346;BME280;21711;49.708;18.568;2023-03-18T13:24:44;97360.28;;;18.65;19.17
31346;BME280;21711;49.708;18.568;2023-03-18T13:30:12;97353.81;;;19.17;18.90
31346;BME280;21711;49.708;18.568;2023-03-18T13:38:05;97349.75;;;17.20;20.34
31346;BME280;21711;49.708;18.568;2023-03-18T13:43:20;97350.19;;;17.66;22.50
31346;BME280;21711;49.708;18.568;2023-03-18T13:45:52;97345.75;;;17.88;21.24
31346;BME280;21711;49.708;18.568;2023-03-18T13:48:31;97339.94;;;17.86;21.98
31346;BME280;21711;49.708;18.568;2023-03-18T13:51:16;97331.34;;;17.54;21.16
31346;BME280;21711;49.708;18.568;2023-03-18T13:53:45;97333.72;;;17.46;19.50
31346;BME280;21711;49.708;18.568;2023-03-18T13:58:55;97331.34;;;17.27;20.67
31346;BME280;21711;49.708;18.568;2023-03-18T14:03:56;97333.56;;;17.07;23.71
31346;BME280;21711;49.708;18.568;2023-03-18T14:11:52;97333.25;;;17.09;23.22
31346;BME280;21711;49.708;18.568;2023-03-18T14:17:14;97324.06;;;16.16;23.30
31346;BME280;21711;49.708;18.568;2023-03-18T14:19:43;97325.38;;;15.96;24.97
31346;BME280;21711;49.708;18.568;2023-03-18T14:22:36;97330.81;;;16.23;24.71
31346;BME280;21711;49.708;18.568;2023-03-18T14:28:16;97318.97;;;16.38;22.31
31346;BME280;21711;49.708;18.568;2023-03-18T14:41:52;97331.00;;;15.49;23.33
31346;BME280;21711;49.708;18.568;2023-03-18T14:47:03;97328.72;;;15.79;22.98
31346;BME280;21711;49.708;18.568;2023-03-18T14:49:43;97319.38;;;15.68;24.32
31346;BME280;21711;49.708;18.568;2023-03-18T14:54:52;97320.56;;;15.52;23.70
31346;BME280;21711;49.708;18.568;2023-03-18T14:57:21;97314.53;;;15.70;23.92
31346;BME280;21711;49.708;18.568;2023-03-18T14:59:49;97336.34;;;15.72;23.22
31346;BME280;21711;49.708;18.568;2023-03-18T15:02:23;97327.41;;;15.45;23.07
31346;BME280;21711;49.708;18.568;2023-03-18T15:04:54;97331.00;;;15.49;23.70
31346;BME280;21711;49.708;18.568;2023-03-18T15:07:28;97321.25;;;15.21;23.86
31346;BME280;21711;49.708;18.568;2023-03-18T15:10:10;97322.16;;;15.17;25.54
31346;BME280;21711;49.708;18.568;2023-03-18T15:12:38;97323.38;;;15.33;25.71
31346;BME280;21711;49.708;18.568;2023-03-18T15:15:09;97318.56;;;14.98;25.92
31346;BME280;21711;49.708;18.568;2023-03-18T15:17:38;97325.91;;;14.65;26.77
31346;BME280;21711;49.708;18.568;2023-03-18T15:20:10;97324.41;;;14.72;27.60
31346;BME280;21711;49.708;18.568;2023-03-18T15:22:37;97331.78;;;14.90;28.02
31346;BME280;21711;49.708;18.568;2023-03-18T15:25:05;97317.38;;;14.91;27.01
31346;BME280;21711;49.708;18.568;2023-03-18T15:27:34;97315.03;;;14.75;26.96